Mao, Dominican Republic
Current Conditions -  °F | °C
As of 8:00 AM on Sunday 25 Jan 2015 (Local Time) from MDST Reporting Station
Haze Haze  
Wind Chill: 70°   Ceiling: 1400
Heat Index: 70°   Visibility: 1.2mi
Dew Point: 70°   Wind: 0mph
Humidity: 100%   Direction: NA
Pressure: 30"   Gusts: NA
Location:  19.56°N, 71.08°W
Report Text: MDST 251200Z 00000KT 2000 BR BKN014 21/21 Q1016 BR/ALL QDS
Loading
Personal Weather Stations






























Interactive Weather Map New forecast layout! Learn more

10-Day Weather Forecast

Advertisements
Track Severe Weather on mobile